Time;durP1;ratioP1;P1;durP2;ratioP2;P2;SDS_P1;SDS_P2;PMS_P1;PMS_P2;Temp;Humidity;BMP_temperature;BMP_pressure;BME280_temperature;BME280_humidity;BME280_pressure;Samples;Min_cycle;Max_cycle;Signal;HPM_P1;HPM_P2
2023/11/21 00:02:11;;;;;;;0.40;0.40;;;7.70;99.90;;;;;;6178891;23;20390;-89
2023/11/21 00:04:38;;;;;;;0.40;0.40;;;7.80;99.90;;;;;;6199999;23;20201;-87
2023/11/21 00:07:05;;;;;;;0.50;0.50;;;7.80;99.90;;;;;;6172912;23;20227;-84
2023/11/21 00:09:33;;;;;;;0.98;0.98;;;7.70;99.90;;;;;;6198109;23;20172;-83
2023/11/21 00:12:00;;;;;;;0.60;0.60;;;7.70;99.90;;;;;;6197757;23;20208;-86
2023/11/21 00:14:27;;;;;;;0.98;0.88;;;7.70;99.90;;;;;;6172732;23;20181;-81
2023/11/21 00:16:54;;;;;;;0.60;0.60;;;7.60;99.90;;;;;;6203618;23;20236;-85
2023/11/21 00:19:24;;;;;;;1.15;1.15;;;7.60;99.90;;;;;;6199911;23;20193;-80
2023/11/21 00:21:51;;;;;;;0.82;0.82;;;7.50;99.90;;;;;;6199394;23;20180;-83
2023/11/21 00:24:18;;;;;;;0.40;0.40;;;7.60;99.90;;;;;;6174166;23;20196;-82
2023/11/21 00:26:48;;;;;;;0.55;0.55;;;7.60;99.90;;;;;;6199798;23;20212;-82
2023/11/21 00:29:17;;;;;;;0.40;0.40;;;7.60;99.90;;;;;;6198375;23;20177;-86
2023/11/21 00:31:46;;;;;;;3.05;1.95;;;7.60;99.90;;;;;;6194949;23;20161;-89
2023/11/21 00:34:13;;;;;;;0.38;0.38;;;7.60;99.90;;;;;;6195916;23;20184;-83
2023/11/21 00:36:40;;;;;;;0.98;0.98;;;7.60;99.90;;;;;;6169212;23;20177;-87
2023/11/21 00:39:08;;;;;;;1.58;1.38;;;7.60;99.90;;;;;;6171133;23;20189;-82
2023/11/21 00:41:36;;;;;;;0.93;0.90;;;7.50;99.90;;;;;;6169962;23;20241;-87
2023/11/21 00:44:04;;;;;;;0.63;0.63;;;7.60;99.90;;;;;;6167442;23;20252;-83
2023/11/21 00:46:32;;;;;;;5.00;1.65;;;7.60;99.90;;;;;;6195097;23;20173;-83
2023/11/21 00:48:59;;;;;;;2.45;2.35;;;7.60;99.90;;;;;;6195687;23;20398;-90
2023/11/21 00:51:27;;;;;;;1.38;1.33;;;7.60;99.90;;;;;;6169853;23;20181;-88
2023/11/21 00:53:56;;;;;;;0.30;0.30;;;7.50;99.90;;;;;;6176410;23;20212;-85
2023/11/21 00:56:24;;;;;;;0.30;0.30;;;7.60;99.90;;;;;;6201502;23;20173;-87
2023/11/21 00:58:52;;;;;;;0.50;0.50;;;7.60;99.90;;;;;;6194288;23;20240;-86
2023/11/21 01:01:21;;;;;;;0.57;0.57;;;7.60;99.90;;;;;;6197610;23;20188;-85
2023/11/21 01:03:55;;;;;;;0.40;0.40;;;7.50;99.90;;;;;;6173424;23;20200;-83
2023/11/21 01:06:22;;;;;;;0.50;0.50;;;7.50;99.90;;;;;;6192904;23;20165;-83
2023/11/21 01:08:49;;;;;;;0.40;0.40;;;7.50;99.90;;;;;;6194382;23;20187;-80
2023/11/21 01:11:17;;;;;;;1.05;0.88;;;7.50;99.90;;;;;;6191632;23;20241;-86
2023/11/21 01:13:44;;;;;;;2.17;1.98;;;7.50;99.90;;;;;;6169162;23;20424;-83
2023/11/21 01:16:16;;;;;;;0.50;0.50;;;7.60;99.90;;;;;;6192643;23;20191;-90
2023/11/21 01:18:46;;;;;;;0.75;0.73;;;7.40;99.90;;;;;;6193052;23;20178;-81
2023/11/21 01:21:14;;;;;;;1.30;1.27;;;7.50;99.90;;;;;;6193883;23;20184;-89
2023/11/21 01:23:50;;;;;;;0.70;0.70;;;7.50;99.90;;;;;;6169741;23;20279;-88
2023/11/21 01:26:19;;;;;;;0.40;0.40;;;7.40;99.90;;;;;;6165561;23;20240;-84
2023/11/21 01:28:51;;;;;;;6.93;2.22;;;7.50;99.90;;;;;;6198386;23;20220;-79
2023/11/21 01:31:19;;;;;;;1.30;1.20;;;7.70;99.90;;;;;;6201715;23;20173;-88
2023/11/21 01:33:47;;;;;;;1.20;1.20;;;7.50;99.90;;;;;;6170331;23;20302;-87
2023/11/21 01:36:16;;;;;;;1.42;1.35;;;7.60;99.90;;;;;;6199279;23;20185;-89
2023/11/21 01:38:45;;;;;;;1.25;1.20;;;7.40;99.90;;;;;;6175367;23;20204;-91
2023/11/21 01:41:14;;;;;;;2.22;2.08;;;7.60;99.90;;;;;;6169151;23;20181;-86
2023/11/21 01:43:41;;;;;;;2.58;1.77;;;7.60;99.90;;;;;;6195443;23;20218;-89
2023/11/21 01:46:12;;;;;;;0.40;0.40;;;7.60;99.90;;;;;;6196901;23;20200;-82
2023/11/21 01:48:39;;;;;;;0.50;0.50;;;7.60;99.90;;;;;;6194298;23;20188;-86
2023/11/21 01:51:08;;;;;;;1.02;0.90;;;7.50;99.90;;;;;;6194797;23;20188;-87
2023/11/21 01:53:40;;;;;;;3.75;3.28;;;7.50;99.90;;;;;;6170283;23;20224;-89
2023/11/21 01:56:18;;;;;;;0.65;0.65;;;7.60;99.90;;;;;;6178540;23;20213;-84
2023/11/21 01:58:46;;;;;;;0.47;0.47;;;7.50;99.90;;;;;;6188254;23;20389;-84
2023/11/21 02:01:14;;;;;;;0.40;0.40;;;7.30;99.90;;;;;;6184170;23;20169;-90
2023/11/21 02:03:41;;;;;;;0.60;0.60;;;7.50;99.90;;;;;;6195767;23;20205;-81
2023/11/21 02:06:08;;;;;;;0.77;0.77;;;7.50;99.90;;;;;;6193890;23;20260;-85
2023/11/21 02:08:38;;;;;;;0.60;0.60;;;7.40;99.90;;;;;;6191943;23;20176;-82
2023/11/21 02:11:06;;;;;;;0.52;0.52;;;7.40;99.90;;;;;;6177109;23;20184;-86
2023/11/21 02:13:35;;;;;;;0.75;0.75;;;7.40;99.90;;;;;;6173801;23;20219;-84
2023/11/21 02:16:05;;;;;;;2.72;2.53;;;7.40;99.90;;;;;;6197029;23;20177;-78
2023/11/21 02:18:36;;;;;;;0.30;0.30;;;7.40;99.90;;;;;;6168765;23;20428;-81
2023/11/21 02:21:05;;;;;;;1.20;1.10;;;7.50;99.90;;;;;;6194191;23;20489;-82
2023/11/21 02:23:36;;;;;;;0.93;0.93;;;7.40;99.90;;;;;;6192442;23;20437;-84
2023/11/21 02:26:07;;;;;;;0.82;0.82;;;7.40;99.90;;;;;;6194399;23;20211;-87
2023/11/21 02:28:38;;;;;;;0.60;0.60;;;7.30;99.90;;;;;;6191887;23;20734;-86
2023/11/21 02:31:07;;;;;;;0.30;0.30;;;7.50;99.90;;;;;;6166741;23;20184;-85
2023/11/21 02:33:35;;;;;;;1.67;1.58;;;7.50;99.90;;;;;;6194929;23;20473;-85
2023/11/21 02:36:05;;;;;;;0.30;0.30;;;7.50;99.90;;;;;;6192851;23;20241;-82
2023/11/21 02:38:34;;;;;;;0.32;0.32;;;7.50;99.90;;;;;;6192995;23;20185;-83
2023/11/21 02:41:05;;;;;;;0.50;0.50;;;7.50;99.90;;;;;;6167971;23;20180;-84
2023/11/21 02:43:32;;;;;;;0.70;0.70;;;7.50;99.90;;;;;;6193630;23;20205;-85
2023/11/21 02:45:59;;;;;;;2.15;2.05;;;7.50;99.90;;;;;;6192694;23;20176;-83
2023/11/21 02:48:26;;;;;;;0.60;0.60;;;7.40;99.90;;;;;;6192112;23;20248;-83
2023/11/21 02:50:55;;;;;;;2.38;2.13;;;7.50;99.90;;;;;;6167658;23;20181;-87
2023/11/21 02:53:24;;;;;;;1.25;1.25;;;7.50;99.90;;;;;;6192419;23;20205;-83
2023/11/21 02:55:59;;;;;;;0.30;0.30;;;7.40;99.90;;;;;;6191697;23;20192;-87
2023/11/21 02:58:27;;;;;;;0.73;0.73;;;7.50;99.90;;;;;;6192125;23;20177;-84
2023/11/21 03:01:00;;;;;;;1.08;1.00;;;7.50;99.90;;;;;;6192404;23;20203;-85
2023/11/21 03:03:28;;;;;;;1.25;1.25;;;7.50;99.90;;;;;;6190930;23;20236;-87
2023/11/21 03:05:56;;;;;;;0.70;0.70;;;7.40;99.90;;;;;;6193967;23;20165;-83
2023/11/21 03:08:23;;;;;;;1.45;1.35;;;7.40;99.90;;;;;;6168667;23;20205;-88
2023/11/21 03:10:52;;;;;;;0.30;0.30;;;7.40;99.90;;;;;;6170026;23;20177;-86
2023/11/21 03:13:21;;;;;;;0.30;0.30;;;7.40;99.90;;;;;;6195848;23;20180;-84
2023/11/21 03:15:48;;;;;;;0.85;0.85;;;7.50;99.90;;;;;;6195998;23;20249;-83
2023/11/21 03:18:16;;;;;;;0.73;0.73;;;7.40;99.90;;;;;;6170427;23;20482;-90
2023/11/21 03:20:47;;;;;;;1.45;1.45;;;7.50;99.90;;;;;;6192920;23;20204;-84
2023/11/21 03:23:15;;;;;;;0.50;0.50;;;7.50;99.90;;;;;;6168006;23;20420;-88
2023/11/21 03:25:42;;;;;;;0.90;0.90;;;7.40;99.90;;;;;;6167689;23;20215;-87
2023/11/21 03:28:11;;;;;;;1.35;1.08;;;7.30;99.90;;;;;;6192257;23;20179;-84
2023/11/21 03:30:40;;;;;;;1.13;1.02;;;7.60;99.90;;;;;;6197831;23;20180;-89
2023/11/21 03:33:07;;;;;;;0.80;0.80;;;7.40;99.90;;;;;;6195452;23;20208;-87
2023/11/21 03:35:35;;;;;;;0.55;0.55;;;7.50;99.90;;;;;;6199678;23;20180;-81
2023/11/21 03:38:02;;;;;;;2.35;2.15;;;7.40;99.90;;;;;;6198216;23;20187;-85
2023/11/21 03:40:29;;;;;;;0.60;0.60;;;7.60;99.90;;;;;;6174649;23;20177;-83
2023/11/21 03:42:56;;;;;;;0.60;0.60;;;7.60;99.90;;;;;;6201814;23;20172;-80
2023/11/21 03:45:23;;;;;;;0.90;0.90;;;7.40;99.90;;;;;;6197544;23;20232;-85
2023/11/21 03:47:50;;;;;;;2.72;2.50;;;7.40;99.90;;;;;;6168696;23;20189;-84
2023/11/21 03:50:17;;;;;;;0.45;0.45;;;7.50;99.90;;;;;;6169254;23;20173;-88
2023/11/21 03:52:44;;;;;;;0.47;0.47;;;7.30;99.90;;;;;;6192562;23;20192;-82
2023/11/21 03:55:11;;;;;;;3.40;3.20;;;7.40;99.90;;;;;;6192904;23;20216;-85
2023/11/21 03:57:38;;;;;;;0.77;0.77;;;7.40;99.90;;;;;;6192593;23;20223;-88
2023/11/21 04:00:08;;;;;;;0.70;0.70;;;7.40;99.90;;;;;;6192187;23;20200;-80
2023/11/21 04:02:35;;;;;;;1.20;1.20;;;7.40;99.90;;;;;;6193103;23;20191;-84
2023/11/21 04:05:03;;;;;;;0.82;0.82;;;7.40;99.90;;;;;;6196064;23;20201;-85
2023/11/21 04:07:30;;;;;;;1.33;1.33;;;7.40;99.90;;;;;;6195809;23;20181;-84
2023/11/21 04:09:57;;;;;;;1.08;1.05;;;7.40;99.90;;;;;;6197345;23;20181;-82
2023/11/21 04:12:25;;;;;;;0.40;0.40;;;7.40;99.90;;;;;;6176487;23;20180;-84
2023/11/21 04:14:52;;;;;;;0.93;0.93;;;7.40;99.90;;;;;;6200849;23;20173;-83
2023/11/21 04:17:21;;;;;;;1.30;1.20;;;7.40;99.90;;;;;;6208044;23;20535;-81
2023/11/21 04:19:49;;;;;;;0.68;0.68;;;7.30;99.90;;;;;;6210277;23;20485;-84
2023/11/21 04:22:23;;;;;;;0.50;0.50;;;7.50;99.90;;;;;;6179543;23;20181;-83
2023/11/21 04:24:51;;;;;;;0.40;0.40;;;7.40;99.90;;;;;;6202944;23;20180;-83
2023/11/21 04:27:18;;;;;;;1.13;1.13;;;7.40;99.90;;;;;;6193036;23;20369;-80
2023/11/21 04:29:45;;;;;;;0.50;0.50;;;7.40;99.90;;;;;;6194372;23;20209;-78
2023/11/21 04:32:12;;;;;;;0.75;0.75;;;7.40;99.90;;;;;;6192288;23;20197;-84
2023/11/21 04:34:40;;;;;;;0.30;0.30;;;7.40;99.90;;;;;;6195081;23;20216;-82
2023/11/21 04:37:07;;;;;;;1.30;1.20;;;7.40;99.90;;;;;;6193285;23;20177;-84
2023/11/21 04:39:35;;;;;;;0.80;0.80;;;7.40;99.90;;;;;;6169300;23;20175;-81
2023/11/21 04:42:02;;;;;;;2.25;1.52;;;7.40;99.90;;;;;;6198640;23;20205;-83
2023/11/21 04:44:29;;;;;;;1.58;1.35;;;7.40;99.90;;;;;;6201172;23;20197;-79
2023/11/21 04:46:57;;;;;;;1.55;1.45;;;7.30;99.90;;;;;;6205679;23;20200;-83
2023/11/21 04:49:24;;;;;;;0.80;0.80;;;7.30;99.90;;;;;;6203519;23;20173;-82
2023/11/21 04:51:52;;;;;;;0.57;0.57;;;7.40;99.90;;;;;;6205463;23;20220;-81
2023/11/21 04:54:19;;;;;;;0.88;0.88;;;7.30;99.90;;;;;;6180873;23;20200;-79
2023/11/21 04:56:46;;;;;;;0.47;0.47;;;7.30;99.90;;;;;;6207076;23;20205;-85
2023/11/21 04:59:16;;;;;;;2.88;2.67;;;7.30;99.90;;;;;;6204058;23;20173;-81
2023/11/21 05:01:43;;;;;;;0.70;0.70;;;7.40;99.90;;;;;;6197216;23;20443;-78
2023/11/21 05:04:11;;;;;;;0.50;0.50;;;7.30;99.90;;;;;;6193328;23;20771;-79
2023/11/21 05:06:41;;;;;;;0.43;0.43;;;7.30;99.90;;;;;;6195233;23;20201;-89
2023/11/21 05:09:12;;;;;;;1.33;1.23;;;7.40;99.90;;;;;;6169689;23;20209;-79
2023/11/21 05:11:40;;;;;;;0.73;0.73;;;7.30;99.90;;;;;;6194694;23;20211;-80
2023/11/21 05:14:09;;;;;;;3.15;2.50;;;7.30;99.90;;;;;;6195490;23;20205;-87
2023/11/21 05:16:36;;;;;;;1.23;1.23;;;7.30;99.90;;;;;;6196542;23;20197;-87
2023/11/21 05:19:09;;;;;;;0.70;0.70;;;7.40;99.90;;;;;;6170375;23;20245;-84
2023/11/21 05:21:38;;;;;;;0.75;0.75;;;7.40;99.90;;;;;;6170759;23;20177;-82
2023/11/21 05:24:05;;;;;;;0.60;0.60;;;7.30;99.90;;;;;;6197242;23;20263;-83
2023/11/21 05:26:32;;;;;;;2.45;2.35;;;7.40;99.90;;;;;;6173395;23;20224;-82
2023/11/21 05:29:01;;;;;;;2.45;2.35;;;7.40;99.90;;;;;;6203363;23;20173;-79
2023/11/21 05:31:28;;;;;;;0.60;0.60;;;7.50;99.90;;;;;;6173622;23;20200;-87
2023/11/21 05:34:00;;;;;;;0.93;0.90;;;7.30;99.90;;;;;;6195110;23;20219;-83
2023/11/21 05:36:27;;;;;;;0.80;0.80;;;7.30;99.90;;;;;;6195249;23;20587;-84
2023/11/21 05:38:54;;;;;;;0.60;0.60;;;7.30;99.90;;;;;;6203934;23;20193;-86
2023/11/21 05:41:21;;;;;;;1.35;1.35;;;7.40;99.90;;;;;;6197742;23;20505;-84
2023/11/21 05:43:48;;;;;;;3.50;1.55;;;7.40;99.90;;;;;;6197847;23;20236;-88
2023/11/21 05:46:16;;;;;;;1.92;1.65;;;7.30;99.90;;;;;;6194182;23;20417;-81
2023/11/21 05:48:48;;;;;;;0.65;0.65;;;7.30;99.90;;;;;;6192460;23;20172;-83
2023/11/21 05:51:17;;;;;;;0.40;0.40;;;7.30;99.90;;;;;;6166631;23;20200;-84
2023/11/21 05:53:44;;;;;;;3.50;3.17;;;7.30;99.90;;;;;;6193668;23;20188;-87
2023/11/21 05:56:11;;;;;;;0.73;0.73;;;7.30;99.90;;;;;;6192944;23;20181;-81
2023/11/21 05:58:39;;;;;;;0.90;0.90;;;7.20;99.90;;;;;;6193241;23;20188;-87
2023/11/21 06:01:09;;;;;;;0.80;0.80;;;7.30;99.90;;;;;;6168912;23;20181;-84
2023/11/21 06:06:22;;;;;;;1.10;1.00;;;7.30;99.90;;;;;;6196994;23;20275;-82
2023/11/21 06:08:49;;;;;;;0.55;0.55;;;7.30;99.90;;;;;;6171159;23;20348;-89
2023/11/21 06:11:18;;;;;;;0.80;0.80;;;7.30;99.90;;;;;;6196695;23;20185;-81
2023/11/21 06:13:47;;;;;;;1.15;0.93;;;7.20;99.90;;;;;;6195733;23;20180;-88
2023/11/21 06:16:19;;;;;;;1.98;1.70;;;7.30;99.90;;;;;;6179782;23;20168;-87
2023/11/21 06:18:49;;;;;;;1.17;1.17;;;7.30;99.90;;;;;;6181511;23;20192;-81
2023/11/21 06:21:17;;;;;;;1.05;1.05;;;7.40;99.90;;;;;;6178923;23;20181;-84
2023/11/21 06:23:45;;;;;;;0.85;0.85;;;7.30;99.90;;;;;;6173853;23;20179;-87
2023/11/21 06:26:12;;;;;;;0.60;0.60;;;7.30;99.90;;;;;;6168598;23;20204;-88
2023/11/21 06:28:39;;;;;;;2.00;1.40;;;7.30;99.90;;;;;;6197793;23;20180;-83
2023/11/21 06:31:10;;;;;;;3.05;2.80;;;7.30;99.90;;;;;;6196441;23;20173;-87
2023/11/21 06:33:38;;;;;;;0.30;0.30;;;7.40;99.90;;;;;;6195131;23;20614;-88
2023/11/21 06:36:06;;;;;;;1.25;1.25;;;7.30;99.90;;;;;;6169131;23;20470;-87
2023/11/21 06:38:33;;;;;;;1.40;1.38;;;7.30;99.90;;;;;;6195474;23;20181;-86
2023/11/21 06:41:04;;;;;;;2.45;1.85;;;7.30;99.90;;;;;;6169086;23;20180;-87
2023/11/21 06:43:31;;;;;;;3.10;2.15;;;7.30;99.90;;;;;;6194559;23;20165;-88
2023/11/21 06:46:00;;;;;;;1.55;1.45;;;7.30;99.90;;;;;;6169263;23;20196;-84
2023/11/21 06:48:29;;;;;;;1.98;1.58;;;7.30;99.90;;;;;;6168542;23;20212;-87
2023/11/21 06:50:57;;;;;;;0.55;0.55;;;7.30;99.90;;;;;;6170821;23;20196;-86
2023/11/21 06:53:24;;;;;;;1.95;1.30;;;7.20;99.90;;;;;;6198135;23;20469;-88
2023/11/21 06:55:55;;;;;;;2.25;1.70;;;7.30;99.90;;;;;;6170725;23;20173;-89
2023/11/21 06:58:22;;;;;;;1.85;1.77;;;7.30;99.90;;;;;;6170715;23;20229;-86
2023/11/21 07:00:50;;;;;;;1.70;1.60;;;7.30;99.90;;;;;;6168367;23;20185;-82
2023/11/21 07:03:23;;;;;;;1.17;1.13;;;7.50;99.90;;;;;;6195320;23;20165;-86
2023/11/21 07:05:54;;;;;;;1.23;1.23;;;7.30;99.90;;;;;;6194087;23;20402;-89
2023/11/21 07:08:23;;;;;;;2.40;1.65;;;7.30;99.90;;;;;;6167364;23;20169;-90
2023/11/21 07:10:54;;;;;;;1.20;1.20;;;7.30;99.90;;;;;;6169764;23;20172;-84
2023/11/21 07:13:21;;;;;;;2.85;2.65;;;7.40;99.90;;;;;;6167876;23;20173;-86
2023/11/21 07:15:49;;;;;;;0.40;0.40;;;7.20;99.90;;;;;;6168982;23;20176;-86
2023/11/21 07:18:16;;;;;;;0.65;0.65;;;7.30;99.90;;;;;;6194842;23;20342;-85
2023/11/21 07:20:43;;;;;;;0.40;0.40;;;7.30;99.90;;;;;;6194873;23;20259;-87
2023/11/21 07:23:11;;;;;;;1.55;1.45;;;7.30;99.90;;;;;;6169876;23;20231;-82
2023/11/21 07:25:37;;;;;;;0.95;0.95;;;7.40;99.90;;;;;;6168549;23;20231;-84
2023/11/21 07:28:05;;;;;;;3.22;3.13;;;7.40;99.90;;;;;;6193280;23;20394;-85
2023/11/21 07:30:32;;;;;;;3.60;3.30;;;7.30;99.90;;;;;;6199768;23;20206;-86
2023/11/21 07:32:59;;;;;;;1.38;1.38;;;7.40;99.90;;;;;;6194005;23;20228;-88
2023/11/21 07:35:26;;;;;;;0.70;0.70;;;7.30;99.90;;;;;;6193216;23;20173;-85
2023/11/21 07:37:53;;;;;;;0.52;0.52;;;7.50;99.90;;;;;;6191635;23;20189;-84
2023/11/21 07:40:20;;;;;;;0.88;0.88;;;7.30;99.90;;;;;;6192214;23;20177;-84
2023/11/21 07:42:50;;;;;;;3.08;2.83;;;7.40;99.90;;;;;;6166589;23;20172;-85
2023/11/21 07:45:21;;;;;;;0.88;0.88;;;7.40;99.90;;;;;;6191875;23;20324;-83
2023/11/21 07:47:49;;;;;;;1.73;1.63;;;7.40;99.90;;;;;;6166693;23;20158;-83
2023/11/21 07:50:17;;;;;;;1.20;1.20;;;7.60;99.90;;;;;;6191567;23;20185;-85
2023/11/21 07:52:44;;;;;;;0.98;0.98;;;7.40;99.90;;;;;;6167428;23;20220;-88
2023/11/21 07:55:11;;;;;;;1.75;1.65;;;7.40;99.90;;;;;;6167053;23;20237;-85
2023/11/21 07:57:39;;;;;;;2.15;2.05;;;7.40;99.90;;;;;;6165771;23;20822;-86
2023/11/21 08:00:09;;;;;;;1.25;1.25;;;7.60;99.90;;;;;;6193151;23;20188;-84
2023/11/21 08:02:36;;;;;;;0.70;0.70;;;7.50;99.90;;;;;;6165833;23;20382;-84
2023/11/21 08:05:03;;;;;;;2.97;2.80;;;7.50;99.90;;;;;;6192832;23;20204;-85
2023/11/21 08:07:31;;;;;;;0.60;0.55;;;7.50;99.90;;;;;;6166338;23;20173;-84
2023/11/21 08:09:58;;;;;;;1.35;1.25;;;7.60;99.90;;;;;;6193370;23;20181;-85
2023/11/21 08:12:27;;;;;;;0.82;0.82;;;7.60;99.90;;;;;;6170966;23;20211;-84
2023/11/21 08:14:54;;;;;;;0.82;0.82;;;7.60;99.90;;;;;;6194056;23;20184;-85
2023/11/21 08:17:23;;;;;;;2.45;2.35;;;7.70;99.90;;;;;;6169549;23;20181;-85
2023/11/21 08:19:51;;;;;;;2.08;1.98;;;7.60;99.90;;;;;;6167933;23;20228;-85
2023/11/21 08:22:18;;;;;;;2.25;2.15;;;7.60;99.90;;;;;;6193034;23;20181;-86
2023/11/21 08:24:46;;;;;;;2.70;1.55;;;7.60;99.90;;;;;;6168405;23;20185;-86
2023/11/21 08:27:15;;;;;;;1.77;1.67;;;7.70;99.90;;;;;;6197506;23;20176;-84
2023/11/21 08:29:43;;;;;;;0.40;0.40;;;7.80;99.90;;;;;;6197491;23;20204;-87
2023/11/21 08:32:10;;;;;;;2.78;2.45;;;7.70;99.90;;;;;;6198117;23;20169;-85
2023/11/21 08:34:39;;;;;;;0.60;0.60;;;7.80;99.90;;;;;;6196630;23;20177;-85
2023/11/21 08:37:07;;;;;;;1.23;1.20;;;7.80;99.90;;;;;;6195879;23;20169;-85
2023/11/21 08:39:34;;;;;;;0.68;0.68;;;8.00;99.90;;;;;;6172152;23;20169;-85
2023/11/21 08:42:01;;;;;;;3.28;3.05;;;8.00;99.90;;;;;;6177373;23;20172;-86
2023/11/21 08:44:28;;;;;;;0.43;0.43;;;8.10;99.90;;;;;;6206137;23;20212;-88
2023/11/21 08:46:55;;;;;;;0.85;0.85;;;8.20;99.90;;;;;;6197344;23;20220;-85
2023/11/21 08:49:22;;;;;;;1.48;1.48;;;8.10;99.90;;;;;;6197277;23;20233;-85
2023/11/21 08:51:50;;;;;;;1.83;1.73;;;8.20;99.90;;;;;;6208244;23;20236;-86
2023/11/21 08:54:17;;;;;;;1.30;1.30;;;8.20;99.90;;;;;;6211971;23;20173;-84
2023/11/21 08:56:44;;;;;;;1.15;1.15;;;8.30;99.90;;;;;;6211873;23;20180;-83
2023/11/21 08:59:14;;;;;;;0.52;0.52;;;8.20;99.90;;;;;;6210916;23;20171;-87
2023/11/21 09:01:42;;;;;;;0.60;0.60;;;8.20;99.90;;;;;;6172701;23;20187;-87
2023/11/21 09:04:09;;;;;;;0.70;0.70;;;8.20;99.90;;;;;;6173084;23;20170;-85
2023/11/21 09:06:36;;;;;;;1.10;1.05;;;8.20;99.90;;;;;;6199474;23;20192;-85
2023/11/21 09:09:05;;;;;;;1.23;1.15;;;8.20;99.90;;;;;;6199518;23;20267;-88
2023/11/21 09:11:33;;;;;;;0.40;0.40;;;8.00;99.90;;;;;;6205580;23;20336;-89
2023/11/21 09:14:01;;;;;;;0.82;0.82;;;7.90;99.90;;;;;;6211216;23;20169;-88
2023/11/21 09:16:29;;;;;;;0.40;0.40;;;8.10;99.90;;;;;;6205379;23;20194;-85
2023/11/21 09:18:56;;;;;;;1.83;0.98;;;8.10;99.90;;;;;;6201599;23;20181;-88
2023/11/21 09:21:26;;;;;;;1.25;1.25;;;8.20;99.90;;;;;;6201702;23;20173;-86
2023/11/21 09:23:54;;;;;;;1.08;1.08;;;8.20;99.90;;;;;;6182035;23;20181;-88
2023/11/21 09:26:21;;;;;;;2.78;2.55;;;8.30;99.90;;;;;;6208098;23;20189;-88
2023/11/21 09:28:48;;;;;;;4.43;2.28;;;8.40;99.90;;;;;;6208153;23;20215;-87
2023/11/21 09:31:17;;;;;;;0.68;0.68;;;8.60;99.90;;;;;;6204964;23;20196;-89
2023/11/21 09:33:45;;;;;;;0.77;0.77;;;8.60;99.90;;;;;;6177840;23;20411;-89
2023/11/21 09:36:13;;;;;;;1.35;1.27;;;8.70;99.90;;;;;;6196950;23;20208;-86
2023/11/21 09:38:41;;;;;;;0.60;0.60;;;8.70;99.90;;;;;;6200401;23;20204;-87
2023/11/21 09:41:21;;;;;;;0.98;0.98;;;8.60;99.90;;;;;;6201356;23;20173;-87
2023/11/21 09:43:51;;;;;;;1.25;1.25;;;8.70;99.90;;;;;;6196194;23;20193;-88
2023/11/21 09:46:22;;;;;;;0.40;0.40;;;8.70;99.90;;;;;;6201754;23;20173;-87
2023/11/21 09:48:52;;;;;;;1.05;1.05;;;8.70;99.90;;;;;;6200861;23;20181;-85
2023/11/21 09:51:21;;;;;;;0.68;0.68;;;8.50;99.90;;;;;;6197575;23;20192;-87
2023/11/21 09:53:52;;;;;;;1.40;1.30;;;8.70;99.90;;;;;;6199068;23;20185;-84
2023/11/21 09:56:23;;;;;;;2.35;2.25;;;8.60;99.90;;;;;;6204376;23;20173;-85
2023/11/21 09:58:53;;;;;;;1.08;1.08;;;8.70;99.90;;;;;;6202833;23;20157;-85
2023/11/21 10:01:22;;;;;;;0.95;0.90;;;9.00;99.90;;;;;;6203529;23;20200;-85
2023/11/21 10:03:49;;;;;;;0.60;0.60;;;8.70;99.90;;;;;;6201732;23;20500;-88
2023/11/21 10:06:18;;;;;;;0.80;0.80;;;8.60;99.90;;;;;;6201020;23;20197;-86
2023/11/21 10:08:46;;;;;;;0.85;0.85;;;8.50;99.90;;;;;;6201138;23;20173;-87
2023/11/21 10:11:24;;;;;;;0.70;0.70;;;8.50;99.90;;;;;;6175322;23;20161;-87
2023/11/21 10:13:54;;;;;;;1.67;1.63;;;8.50;99.90;;;;;;6200298;23;20200;-88
2023/11/21 10:16:24;;;;;;;0.50;0.50;;;8.50;99.90;;;;;;6199926;23;20208;-88
2023/11/21 10:18:55;;;;;;;0.60;0.60;;;8.50;99.90;;;;;;6200657;23;20165;-87
2023/11/21 10:21:38;;;;;;;0.82;0.82;;;8.40;99.90;;;;;;6198100;23;20173;-88
2023/11/21 10:24:06;;;;;;;1.27;1.13;;;8.60;99.90;;;;;;6201395;23;20201;-90
2023/11/21 10:26:35;;;;;;;0.88;0.88;;;8.40;99.90;;;;;;6173127;23;20268;-87
2023/11/21 10:29:18;;;;;;;0.50;0.50;;;8.30;99.90;;;;;;6199723;23;20165;-88
2023/11/21 10:31:48;;;;;;;4.80;4.32;;;8.50;99.90;;;;;;6199309;23;20204;-87
2023/11/21 10:34:18;;;;;;;0.40;0.40;;;8.40;99.90;;;;;;6170199;23;20181;-89
2023/11/21 10:36:45;;;;;;;1.15;1.15;;;8.40;99.90;;;;;;6197590;23;20220;-87
2023/11/21 10:39:18;;;;;;;0.30;0.30;;;8.40;99.90;;;;;;6196425;23;20423;-86
2023/11/21 10:41:46;;;;;;;0.40;0.40;;;8.70;99.90;;;;;;6200285;23;20344;-87
2023/11/21 10:44:20;;;;;;;2.00;1.90;;;8.60;99.90;;;;;;6200287;23;20176;-87
2023/11/21 10:46:52;;;;;;;0.47;0.47;;;8.40;99.90;;;;;;6172709;23;20185;-90
2023/11/21 10:49:20;;;;;;;5.25;1.90;;;8.40;99.90;;;;;;6198997;23;20165;-90
2023/11/21 10:51:48;;;;;;;1.90;1.80;;;8.40;99.90;;;;;;6196156;23;20173;-87
2023/11/21 10:54:23;;;;;;;0.88;0.85;;;8.40;99.90;;;;;;6195029;23;20199;-88
2023/11/21 10:56:59;;;;;;;5.47;3.25;;;8.40;99.90;;;;;;6197042;23;20516;-85
2023/11/21 10:59:30;;;;;;;0.50;0.50;;;8.10;99.90;;;;;;6196368;23;20172;-84
2023/11/21 11:02:03;;;;;;;4.35;4.15;;;8.10;99.90;;;;;;6196297;23;20201;-88
2023/11/21 11:04:32;;;;;;;3.78;3.55;;;8.10;99.90;;;;;;6197685;23;20177;-83
2023/11/21 11:07:03;;;;;;;3.03;2.53;;;7.80;99.90;;;;;;6195234;23;20205;-83
2023/11/21 11:09:33;;;;;;;9.38;2.67;;;7.90;99.90;;;;;;6195730;23;20224;-84
2023/11/21 11:12:04;;;;;;;2.55;2.35;;;7.80;99.90;;;;;;6201479;23;20220;-85
2023/11/21 11:14:32;;;;;;;2.22;2.13;;;8.10;99.90;;;;;;6207546;23;20196;-81
2023/11/21 11:17:01;;;;;;;4.05;3.75;;;8.20;99.90;;;;;;6192753;23;20281;-86
2023/11/21 11:19:28;;;;;;;2.03;1.83;;;8.20;99.90;;;;;;6195520;23;20204;-85
2023/11/21 11:22:15;;;;;;;4.78;4.47;;;8.20;99.90;;;;;;6194896;23;20190;-88
2023/11/21 11:24:45;;;;;;;3.75;3.42;;;8.00;99.90;;;;;;6193761;23;20233;-86
2023/11/21 11:27:21;;;;;;;12.90;3.65;;;7.90;99.90;;;;;;6193585;23;20228;-86
2023/11/21 11:29:58;;;;;;;1.23;1.23;;;7.80;99.90;;;;;;6193389;23;20169;-85
2023/11/21 11:32:37;;;;;;;11.40;3.92;;;7.80;99.90;;;;;;6190132;23;20185;-80
2023/11/21 11:35:16;;;;;;;3.00;2.90;;;7.80;99.90;;;;;;6193804;23;20165;-79
2023/11/21 11:37:44;;;;;;;1.15;1.05;;;7.70;99.90;;;;;;6196503;23;20168;-86
2023/11/21 11:40:12;;;;;;;2.80;2.55;;;7.50;99.90;;;;;;6199865;23;20216;-81
2023/11/21 11:42:38;;;;;;;3.72;3.53;;;7.40;99.90;;;;;;6204705;23;20171;-83
2023/11/21 11:45:19;;;;;;;3.00;2.80;;;7.30;99.90;;;;;;6179820;23;20212;-81
2023/11/21 11:47:48;;;;;;;6.43;6.03;;;7.20;99.90;;;;;;6204597;23;20169;-82
2023/11/21 11:50:19;;;;;;;4.30;3.88;;;7.00;99.90;;;;;;6179103;23;20183;-81
2023/11/21 11:52:53;;;;;;;2.33;2.22;;;6.90;99.90;;;;;;6203499;23;20179;-83
2023/11/21 11:55:22;;;;;;;1.70;1.70;;;6.90;99.90;;;;;;6202742;23;20179;-83
2023/11/21 11:57:56;;;;;;;1.90;1.80;;;6.90;99.90;;;;;;6196061;23;20194;-85
2023/11/21 12:00:26;;;;;;;12.70;6.18;;;6.80;99.90;;;;;;6170216;23;20164;-84
2023/11/21 12:03:04;;;;;;;3.97;3.67;;;6.70;99.90;;;;;;6197445;23;20169;-81
2023/11/21 12:05:35;;;;;;;4.63;4.30;;;6.70;99.90;;;;;;6195154;23;20200;-83
2023/11/21 12:08:04;;;;;;;8.65;5.57;;;6.70;99.90;;;;;;6193631;23;20212;-84
2023/11/21 12:10:33;;;;;;;3.28;3.17;;;6.60;99.90;;;;;;6193980;23;20172;-82
2023/11/21 12:13:07;;;;;;;2.42;2.33;;;6.60;99.90;;;;;;6195159;23;20181;-86
2023/11/21 12:15:35;;;;;;;7.00;6.10;;;6.20;99.90;;;;;;6192880;23;20168;-81
2023/11/21 12:18:03;;;;;;;1.83;1.83;;;6.10;99.90;;;;;;6193666;23;20743;-84
2023/11/21 12:20:31;;;;;;;6.63;4.72;;;6.10;99.90;;;;;;6168039;23;20181;-81
2023/11/21 12:23:00;;;;;;;4.35;4.15;;;6.20;99.90;;;;;;6192829;23;20464;-83
2023/11/21 12:25:29;;;;;;;3.17;2.60;;;6.20;99.90;;;;;;6192739;23;20743;-86
2023/11/21 12:27:57;;;;;;;13.25;4.60;;;6.20;99.90;;;;;;6192006;23;20564;-90
2023/11/21 12:30:28;;;;;;;5.57;3.10;;;6.10;99.90;;;;;;6193102;23;20215;-83
2023/11/21 12:32:55;;;;;;;4.65;4.40;;;6.00;99.90;;;;;;6192184;23;20155;-81
2023/11/21 12:35:26;;;;;;;1.88;1.77;;;5.90;99.90;;;;;;6193802;23;20181;-85
2023/11/21 12:37:57;;;;;;;2.90;2.70;;;5.90;99.90;;;;;;6196223;23;20277;-83
2023/11/21 12:40:25;;;;;;;4.10;3.30;;;5.70;99.90;;;;;;6202236;23;20168;-81
2023/11/21 12:42:54;;;;;;;1.33;1.33;;;5.50;99.90;;;;;;6203287;23;20177;-85
2023/11/21 12:45:25;;;;;;;2.85;2.65;;;5.40;99.90;;;;;;6179091;23;20193;-81
2023/11/21 12:48:13;;;;;;;3.25;3.05;;;5.40;99.90;;;;;;6203762;23;20188;-83
2023/11/21 12:50:40;;;;;;;2.10;2.00;;;5.50;99.90;;;;;;6202963;23;20248;-80
2023/11/21 12:53:18;;;;;;;1.42;1.38;;;5.40;99.90;;;;;;6175427;23;20192;-83
2023/11/21 12:55:49;;;;;;;6.32;2.63;;;5.20;99.90;;;;;;6172671;23;20603;-83
2023/11/21 12:58:20;;;;;;;2.80;2.60;;;5.40;99.90;;;;;;6194997;23;20176;-83
2023/11/21 13:00:49;;;;;;;3.72;3.42;;;5.30;99.90;;;;;;6193397;23;20181;-83
2023/11/21 13:03:25;;;;;;;3.60;3.17;;;5.20;99.90;;;;;;6169240;23;20164;-84
2023/11/21 13:05:54;;;;;;;2.55;2.45;;;5.20;99.90;;;;;;6167277;23;20170;-84
2023/11/21 13:08:23;;;;;;;7.57;3.75;;;5.20;99.90;;;;;;6169484;23;20225;-86
2023/11/21 13:10:56;;;;;;;0.93;0.93;;;5.20;99.90;;;;;;6193006;23;20180;-85